Eloise, Florida
Current Conditions -  °F | °C
As of 4:47 PM on Sunday 21 Dec 2014 (Local Time) from KBOW Reporting Station
Broken Clouds Broken Clouds  
Wind Chill: 75°   Ceiling: 6500
Heat Index: 75°   Visibility: 10mi
Dew Point: 61°   Wind: 7mph
Humidity: 61%   Direction: 190°S
Pressure: 30.03"   Gusts: NA
Location:  27.9768°N, 81.764°W
Report Text: KBOW 212147Z 19006KT 10SM SCT030 BKN065 24/16 A3003
Loading
Personal Weather Stations






























Interactive Weather Map New forecast layout! Learn more

10-Day Weather Forecast

Advertisements
Track Severe Weather on mobile